Reno, Minnesota
Current Conditions -  °F | °C
As of 2:53 AM on Sunday 23 Nov 2014 (Local Time) from KLSE Reporting Station
Overcast Overcast  
Wind Chill: 52°   Ceiling: 1400
Heat Index: 52°   Visibility: 10mi
Dew Point: 48°   Wind: 14mph
Humidity: 86%   Direction: 160°SSE
Pressure: 29.57"   Gusts: NA
Location:  43.6451°N, 91.3164°W
Report Text: KLSE 230853Z AUTO 16012KT 10SM OVC014 11/09 A2957 RMK AO2 SLP018 T01110089 56015
Loading
Personal Weather Stations






























Interactive Weather Map New forecast layout! Learn more

10-Day Weather Forecast

Advertisements
Track Severe Weather on mobile